Aviation Digital Data Service (ADDS)

Output produced by METARs form (0825 UTC 20 March 2019)
found at http://www.aviationweather.gov/metar/data/
 
Forecast for: UIII (IRKUTSK , RU)
Text: TAF UIII 200800Z 2009/2109 30003MPS 9999 BKN020CB
Forecast period: 0900 UTC 20 March 2019 to 0900 UTC 21 March 2019
Forecast type: FROM: standard forecast or significant change
Winds: from the WNW (300 degrees) at 7 MPH (6 knots; 3.1 m/s)
Visibility: 6 or more miles 10+ km)
Ceiling: 2000 feet AGL
Clouds: broken clouds at 2000 feet AGL
Weather: no significant weather forecast for this period
Text: TEMPO 2015/2109 30008MPS 0900 +SHSN VV004
Forecast period: 1500 UTC 20 March 2019 to 0900 UTC 21 March 2019
Forecast type: TEMPORARY: The following changes expected for less than half the time period
Winds: from the WNW (300 degrees) at 18 MPH (16 knots; 8.2 m/s)
Visibility: 0.56 miles (0.90 km)
Ceiling: indefinite ceiling with vertical visibility of 400 feet AGL
Clouds: obscured sky
Weather: +SHSN  (heavy snow showers)